Millhaven, Canada
Current Conditions -  °F | °C
As of 6:00 PM on Wednesday 22 Oct 2014 (Local Time) from CYGK Reporting Station
Broken Clouds Broken Clouds  
Wind Chill: 10°   Ceiling: 6500
Heat Index: 10°   Visibility: 15mi
Dew Point:   Wind: 14mph
Humidity: 71%   Direction: 20°NNE
Pressure: 30.19"   Gusts: NA
Location:  44.2°N, 76.75°W
Report Text: CYGK 222200Z 02012KT 15SM FEW025 BKN065 10/05 A3019 RMK SF1SC6 SLP227
Loading
Personal Weather Stations






























Interactive Weather Map
Tropical Storm Tracking
New forecast layout! Learn more

10-Day Weather Forecast

Advertisements
Track Severe Weather on mobile